createdAt,value
2019-05-12T00:00:02.867Z,1.46
2019-05-12T00:01:03.546Z,1.44
2019-05-12T00:06:03.702Z,1.45
2019-05-12T00:07:03.616Z,1.46
2019-05-12T00:08:03.345Z,1.56
2019-05-12T00:09:03.376Z,1.56
2019-05-12T00:10:03.447Z,1.6
2019-05-12T00:11:03.186Z,1.56
2019-05-12T00:12:03.608Z,1.56
2019-05-12T00:13:03.613Z,1.55
2019-05-12T00:14:03.640Z,1.54
2019-05-12T00:15:03.683Z,1.67
2019-05-12T00:16:03.388Z,1.55
2019-05-12T00:17:03.222Z,1.5
2019-05-12T00:18:03.437Z,1.69
2019-05-12T00:19:03.160Z,2.01
2019-05-12T00:20:03.514Z,2.02
2019-05-12T00:21:03.362Z,1.79
2019-05-12T00:22:03.492Z,1.73
2019-05-12T00:23:03.239Z,1.76
2019-05-12T00:24:03.096Z,1.78
2019-05-12T00:25:03.121Z,2.05
2019-05-12T00:26:02.955Z,2.28
2019-05-12T00:27:03.221Z,1.54
2019-05-12T00:28:03.215Z,1.73
2019-05-12T00:29:03.123Z,2.11
2019-05-12T00:30:03.149Z,1.86
2019-05-12T00:31:02.965Z,1.99
2019-05-12T00:32:03.033Z,2.26
2019-05-12T00:33:02.964Z,2.15
2019-05-12T00:34:02.799Z,2.59
2019-05-12T00:35:02.894Z,2.14
2019-05-12T00:36:02.793Z,1.97
2019-05-12T00:37:02.830Z,2.19
2019-05-12T00:38:02.797Z,2.26
2019-05-12T00:39:03.515Z,2.45
2019-05-12T00:40:03.534Z,2.17
2019-05-12T00:41:03.838Z,2.29
2019-05-12T00:42:03.759Z,2.4
2019-05-12T00:43:03.565Z,2.29
2019-05-12T00:44:03.666Z,2.35
2019-05-12T00:45:03.697Z,2.55
2019-05-12T00:46:03.368Z,2.26
2019-05-12T00:47:03.668Z,2.22
2019-05-12T00:48:03.260Z,2.1
2019-05-12T00:49:03.368Z,2.24
2019-05-12T00:50:03.530Z,2.26
2019-05-12T00:51:03.425Z,2.21
2019-05-12T00:52:03.142Z,2.55
2019-05-12T00:53:03.377Z,1.98
2019-05-12T00:54:03.221Z,1.98
2019-05-12T00:55:03.471Z,2.63
2019-05-12T00:56:03.118Z,2.38
2019-05-12T00:57:02.830Z,2.19
2019-05-12T00:58:03.125Z,2.19
2019-05-12T00:59:03.038Z,2.74
2019-05-12T01:00:03.124Z,3.02
2019-05-12T01:01:03.254Z,3.02
2019-05-12T01:02:03.206Z,3.74
2019-05-12T01:03:02.880Z,3.65
2019-05-12T01:04:02.977Z,3.65
2019-05-12T01:05:02.995Z,4.05
2019-05-12T01:06:02.873Z,3.76
2019-05-12T01:07:02.848Z,3.81
2019-05-12T01:08:03.550Z,4.08
2019-05-12T01:09:02.934Z,4.05
2019-05-12T01:10:05.177Z,4.81
2019-05-12T01:11:02.869Z,4.87
2019-05-12T01:12:03.562Z,5.05
2019-05-12T01:13:03.469Z,4.91
2019-05-12T01:14:03.528Z,5.32
2019-05-12T01:15:03.667Z,6.16
2019-05-12T01:16:03.383Z,5.06
2019-05-12T01:17:03.741Z,5.84
2019-05-12T01:18:03.494Z,5.91
2019-05-12T01:19:03.288Z,5.65
2019-05-12T01:20:03.326Z,5.89
2019-05-12T01:21:03.328Z,5.85
2019-05-12T01:22:03.579Z,6.21
2019-05-12T01:23:03.114Z,6.84
2019-05-12T01:24:03.729Z,7.13
2019-05-12T01:25:03.292Z,7.1
2019-05-12T01:26:03.484Z,6.71
2019-05-12T01:27:02.894Z,7.03
2019-05-12T01:28:03.093Z,7.68
2019-05-12T01:29:03.265Z,6.89
2019-05-12T01:30:03.108Z,7.91
2019-05-12T01:31:03.247Z,8.32
2019-05-12T01:32:02.972Z,7.75
2019-05-12T01:33:02.933Z,8.08
2019-05-12T01:34:02.763Z,8.85
2019-05-12T01:35:03.480Z,8.15
2019-05-12T01:36:03.143Z,8.88
2019-05-12T01:37:03.122Z,10.69
2019-05-12T01:38:03.173Z,10.38
2019-05-12T01:39:03.004Z,10.39
2019-05-12T01:40:02.958Z,11.39
2019-05-12T01:41:02.835Z,10.41
2019-05-12T01:42:02.975Z,10.59
2019-05-12T01:43:03.720Z,11.12
2019-05-12T01:44:02.868Z,11.29
2019-05-12T01:45:03.791Z,10.82
2019-05-12T01:46:02.979Z,10.82
2019-05-12T01:47:02.948Z,11.72
2019-05-12T01:48:02.754Z,11.87
2019-05-12T01:49:02.764Z,11.87
2019-05-12T01:50:03.670Z,11.05
2019-05-12T01:51:03.661Z,10.88
2019-05-12T01:52:03.605Z,10.88
2019-05-12T01:53:02.884Z,11.94
2019-05-12T01:54:14.958Z,10.85
2019-05-12T01:55:03.809Z,11.3
2019-05-12T01:56:03.469Z,12.21
2019-05-12T01:57:03.579Z,11.52
2019-05-12T01:58:03.352Z,12.21
2019-05-12T01:59:03.633Z,9.41
2019-05-12T02:00:03.529Z,8.1
2019-05-12T02:01:03.324Z,7.22
2019-05-12T02:02:03.400Z,6.98
2019-05-12T02:03:03.787Z,5.24
2019-05-12T02:04:03.266Z,4.71
2019-05-12T02:05:03.082Z,5.38
2019-05-12T02:06:03.251Z,4.53
2019-05-12T02:07:02.888Z,4.36
2019-05-12T02:08:02.949Z,4.29
2019-05-12T02:09:02.899Z,4.54
2019-05-12T02:10:03.281Z,4.03
2019-05-12T02:11:03.046Z,3.89
2019-05-12T02:12:03.035Z,3.83
2019-05-12T02:13:02.873Z,3.81
2019-05-12T02:14:02.859Z,4.1
2019-05-12T02:15:02.781Z,4.41
2019-05-12T02:16:03.635Z,3.84
2019-05-12T02:17:03.816Z,4.25
2019-05-12T02:18:03.585Z,4.76
2019-05-12T02:19:02.717Z,4.62
2019-05-12T02:20:02.829Z,3.86
2019-05-12T02:21:03.741Z,4.18
2019-05-12T02:22:03.703Z,4.48
2019-05-12T02:23:03.553Z,4.04
2019-05-12T02:24:03.542Z,4.49
2019-05-12T02:25:03.696Z,3.82
2019-05-12T02:26:03.425Z,4.06
2019-05-12T02:27:03.558Z,4.5
2019-05-12T02:28:03.353Z,3.77
2019-05-12T02:29:03.328Z,4.63
2019-05-12T02:30:03.328Z,3.76
2019-05-12T02:31:03.430Z,3.76
2019-05-12T02:32:03.373Z,3.85
2019-05-12T02:33:05.448Z,3.68
2019-05-12T02:34:05.946Z,3.68
2019-05-12T02:35:06.067Z,3.77
2019-05-12T02:36:04.938Z,4.12
2019-05-12T02:37:05.691Z,3.36
2019-05-12T02:38:05.251Z,3.36
2019-05-12T02:39:05.514Z,4.19
2019-05-12T02:40:04.988Z,3.71
2019-05-12T02:41:04.915Z,3.71
2019-05-12T02:42:05.333Z,3.45
2019-05-12T02:43:05.957Z,3.75
2019-05-12T02:44:05.619Z,4
2019-05-12T02:45:05.901Z,3.34
2019-05-12T02:46:05.051Z,3.84
2019-05-12T02:47:05.341Z,3.2
2019-05-12T02:48:05.562Z,3.61
2019-05-12T02:49:05.246Z,3.24
2019-05-12T02:50:05.647Z,4.1
2019-05-12T02:51:05.809Z,3.21
2019-05-12T02:52:05.300Z,3.46
2019-05-12T02:53:05.537Z,3.75
2019-05-12T02:54:05.900Z,3.18
2019-05-12T02:55:06.568Z,3.4
2019-05-12T02:56:05.300Z,3.34
2019-05-12T02:57:04.555Z,4.06
2019-05-12T02:58:05.872Z,3.49
2019-05-12T02:59:05.728Z,3.14
2019-05-12T03:00:05.409Z,3.26
2019-05-12T03:01:05.761Z,4.47
2019-05-12T03:02:05.502Z,3.54
2019-05-12T03:03:05.731Z,3.14
2019-05-12T03:04:06.108Z,4.34
2019-05-12T03:05:05.857Z,3.68
2019-05-12T03:06:05.735Z,3.74
2019-05-12T03:07:06.784Z,3.46
2019-05-12T03:08:05.234Z,3.39
2019-05-12T03:09:05.020Z,3.96
2019-05-12T03:10:05.309Z,3.98
2019-05-12T03:11:06.418Z,3.31
2019-05-12T03:12:06.305Z,3.68
2019-05-12T03:13:04.595Z,4.2
2019-05-12T03:14:04.176Z,3.76
2019-05-12T03:15:05.780Z,3.63
2019-05-12T03:16:05.247Z,3.58
2019-05-12T03:17:04.905Z,3.99
2019-05-12T03:18:06.943Z,4.13
2019-05-12T03:19:05.429Z,3.51
2019-05-12T03:20:05.196Z,4.04
2019-05-12T03:21:06.045Z,4.48
2019-05-12T03:22:05.371Z,3.96
2019-05-12T03:23:06.685Z,3.66
2019-05-12T03:24:06.796Z,3.27
2019-05-12T03:25:20.685Z,3.88
2019-05-12T03:26:05.501Z,3.88
2019-05-12T03:27:04.512Z,3.67
2019-05-12T03:28:08.372Z,3.92
2019-05-12T03:29:06.274Z,3.92
2019-05-12T03:30:12.112Z,3.64
2019-05-12T03:31:08.573Z,3.74
2019-05-12T03:32:08.926Z,3.91
2019-05-12T03:33:11.302Z,3.71
2019-05-12T03:34:10.980Z,4.04
2019-05-12T03:35:09.506Z,3.45
2019-05-12T03:36:10.233Z,3.71
2019-05-12T03:37:08.503Z,3.62
2019-05-12T03:38:04.601Z,3.44
2019-05-12T03:39:04.493Z,3.85
2019-05-12T03:40:05.707Z,3.71
2019-05-12T03:41:05.591Z,3.6
2019-05-12T03:42:05.378Z,3.86
2019-05-12T03:43:05.821Z,3.73
2019-05-12T03:44:05.382Z,3.43
2019-05-12T03:45:04.963Z,3.75
2019-05-12T03:46:05.593Z,3.28
2019-05-12T03:47:05.289Z,3.4
2019-05-12T03:48:04.497Z,3.01
2019-05-12T03:49:05.770Z,3.22
2019-05-12T03:50:04.895Z,3.08
2019-05-12T03:51:05.866Z,3.09
2019-05-12T03:52:05.383Z,3.38
2019-05-12T03:53:10.959Z,2.83
2019-05-12T03:54:05.366Z,3.09
2019-05-12T03:55:05.902Z,3.3
2019-05-12T03:56:04.639Z,3.15
2019-05-12T03:57:04.718Z,3.36
2019-05-12T03:58:04.757Z,3.11
2019-05-12T03:59:05.294Z,3.34
2019-05-12T04:00:05.531Z,3.51
2019-05-12T04:01:04.982Z,3.41
2019-05-12T04:02:04.988Z,3.28
2019-05-12T04:03:05.133Z,3.23
2019-05-12T04:04:05.652Z,2.74
2019-05-12T04:05:05.579Z,3.18
2019-05-12T04:06:05.023Z,2.98
2019-05-12T04:07:05.385Z,3.3
2019-05-12T04:08:06.354Z,2.81
2019-05-12T04:09:04.859Z,2.98
2019-05-12T04:10:05.476Z,2.86
2019-05-12T04:11:05.634Z,3.23
2019-05-12T04:12:05.492Z,3.23
2019-05-12T04:13:04.880Z,3.34
2019-05-12T04:14:06.003Z,3.34
2019-05-12T04:15:05.475Z,3.29
2019-05-12T04:16:05.166Z,3.48
2019-05-12T04:17:05.024Z,3.48
2019-05-12T04:18:06.239Z,3.36
2019-05-12T04:19:05.658Z,3.37
2019-05-12T04:20:05.047Z,3.37
2019-05-12T04:21:05.841Z,3.28
2019-05-12T04:22:05.746Z,3.05
2019-05-12T04:23:06.904Z,3.08
2019-05-12T04:24:06.205Z,3.52
2019-05-12T04:25:06.556Z,3.29
2019-05-12T04:26:15.678Z,3.43
2019-05-12T04:27:05.512Z,3.82
2019-05-12T04:28:05.175Z,3.51
2019-05-12T04:29:05.458Z,3.67
2019-05-12T04:30:05.783Z,4.18
2019-05-12T04:31:05.689Z,3.74
2019-05-12T04:32:05.429Z,4.25
2019-05-12T04:33:05.271Z,3.9
2019-05-12T04:34:05.597Z,4.05
2019-05-12T04:35:05.026Z,4.25
2019-05-12T04:36:05.894Z,3.62
2019-05-12T04:37:04.736Z,4.33
2019-05-12T04:38:04.881Z,3.65
2019-05-12T04:39:04.428Z,3.92
2019-05-12T04:40:05.774Z,3.85
2019-05-12T04:41:06.230Z,3.62
2019-05-12T04:42:05.559Z,3.87
2019-05-12T04:43:06.559Z,4.34
2019-05-12T04:44:06.323Z,3.94
2019-05-12T04:45:04.833Z,3.52
2019-05-12T04:46:05.386Z,3.7
2019-05-12T04:47:05.891Z,4.26
2019-05-12T04:48:06.022Z,4.14
2019-05-12T04:49:05.703Z,4.07
2019-05-12T04:50:05.873Z,3.61
2019-05-12T04:51:05.268Z,3.75
2019-05-12T04:52:05.560Z,3.9
2019-05-12T04:53:06.824Z,3.62
2019-05-12T04:54:06.431Z,4.26
2019-05-12T04:55:05.101Z,3.96
2019-05-12T04:56:16.462Z,4.14
2019-05-12T04:57:04.418Z,4.49
2019-05-12T04:58:04.804Z,4.31
2019-05-12T04:59:05.374Z,4.18
2019-05-12T05:00:05.398Z,4.57
2019-05-12T05:01:06.678Z,3.99
2019-05-12T05:02:05.785Z,4.82
2019-05-12T05:03:05.737Z,4.82
2019-05-12T05:04:06.000Z,4.08
2019-05-12T05:05:05.615Z,4.08
2019-05-12T05:06:04.684Z,4.75
2019-05-12T05:07:04.672Z,4.39
2019-05-12T05:08:04.821Z,3.81
2019-05-12T05:09:05.264Z,4.97
2019-05-12T05:10:04.893Z,4.21
2019-05-12T05:11:04.271Z,4.32
2019-05-12T05:12:04.834Z,3.93
2019-05-12T05:13:05.668Z,3.98
2019-05-12T05:14:04.522Z,4.3
2019-05-12T05:15:05.655Z,3.61
2019-05-12T05:16:05.654Z,3.76
2019-05-12T05:17:06.100Z,3.92
2019-05-12T05:18:06.988Z,3.66
2019-05-12T05:19:03.868Z,4.14
2019-05-12T05:20:04.265Z,3.63
2019-05-12T05:21:04.841Z,3.89
2019-05-12T05:22:04.454Z,4.16
2019-05-12T05:23:04.277Z,3.36
2019-05-12T05:24:04.061Z,4.63
2019-05-12T05:25:04.410Z,3.49
2019-05-12T05:26:25.220Z,4.11
2019-05-12T05:27:04.562Z,3.56
2019-05-12T05:28:04.245Z,4.88
2019-05-12T05:29:04.554Z,4.58
2019-05-12T05:30:04.272Z,4.47
2019-05-12T05:31:03.734Z,4.23
2019-05-12T05:32:03.659Z,4.86
2019-05-12T05:33:05.062Z,3.89
2019-05-12T05:34:05.070Z,4.12
2019-05-12T05:35:07.178Z,3.75
2019-05-12T05:36:03.638Z,4.3
2019-05-12T05:37:05.303Z,4.42
2019-05-12T05:38:04.720Z,4.13
2019-05-12T05:39:04.453Z,4.39
2019-05-12T05:40:04.113Z,4.29
2019-05-12T05:41:10.373Z,3.69
2019-05-12T05:42:04.705Z,3.61
2019-05-12T05:43:18.145Z,4.01
2019-05-12T05:44:03.598Z,4.15
2019-05-12T05:45:05.089Z,4.39
2019-05-12T05:46:08.218Z,4.6
2019-05-12T05:47:04.507Z,4.11
2019-05-12T05:48:09.925Z,4.19
2019-05-12T05:49:04.347Z,3.49
2019-05-12T05:50:04.894Z,3.58
2019-05-12T05:51:09.011Z,3.58
2019-05-12T05:52:03.728Z,3.66
2019-05-12T05:53:04.316Z,4.16
2019-05-12T05:54:04.199Z,4.16
2019-05-12T05:55:14.466Z,3.62
2019-05-12T05:56:04.223Z,3.89
2019-05-12T05:57:06.361Z,3.89
2019-05-12T05:58:10.202Z,4.32
2019-05-12T05:59:04.853Z,3.79
2019-05-12T06:01:08.351Z,3.16
2019-05-12T06:02:05.155Z,4.26
2019-05-12T06:03:05.994Z,3.44
2019-05-12T06:04:08.741Z,3.9
2019-05-12T06:05:04.574Z,4.14
2019-05-12T06:06:12.268Z,4.02
2019-05-12T06:07:04.242Z,3.51
2019-05-12T06:08:04.444Z,4.11
2019-05-12T06:09:03.821Z,3.66
2019-05-12T06:10:04.263Z,3.91
2019-05-12T06:11:08.333Z,4.19
2019-05-12T06:12:09.811Z,4.18
2019-05-12T06:13:04.324Z,4.05
2019-05-12T06:14:13.062Z,3.56
2019-05-12T06:15:04.335Z,3.76
2019-05-12T06:16:04.607Z,4.04
2019-05-12T06:17:04.488Z,3.75
2019-05-12T06:18:03.966Z,4.01
2019-05-12T06:19:03.686Z,4.31
2019-05-12T06:20:04.595Z,4.33
2019-05-12T06:21:03.662Z,4.42
2019-05-12T06:22:04.122Z,4.24
2019-05-12T06:23:04.678Z,3.83
2019-05-12T06:24:03.791Z,3.91
2019-05-12T06:25:05.191Z,4.44
2019-05-12T06:26:04.913Z,4.08
2019-05-12T06:27:20.286Z,4.33
2019-05-12T06:28:08.351Z,4.21
2019-05-12T06:29:04.640Z,5.65
2019-05-12T06:30:06.520Z,4.31
2019-05-12T06:31:04.380Z,3.71
2019-05-12T06:32:10.578Z,3.83
2019-05-12T06:33:04.371Z,4.03
2019-05-12T06:34:18.670Z,4.69
2019-05-12T06:35:04.796Z,4.25
2019-05-12T06:36:07.409Z,4.29
2019-05-12T06:37:14.313Z,3.91
2019-05-12T06:38:05.385Z,3.79
2019-05-12T06:39:04.536Z,3.91
2019-05-12T06:40:03.753Z,4.22
2019-05-12T06:41:03.745Z,4.59
2019-05-12T06:42:16.735Z,4.59
2019-05-12T06:43:04.703Z,4.38
2019-05-12T06:44:03.895Z,3.67
2019-05-12T06:45:03.978Z,3.67
2019-05-12T06:46:03.811Z,3.62
2019-05-12T06:47:08.478Z,3.86
2019-05-12T06:48:03.604Z,3.86
2019-05-12T06:49:16.573Z,3.99
2019-05-12T06:50:04.175Z,3.74
2019-05-12T06:51:04.236Z,4.12
2019-05-12T06:52:07.358Z,4.12
2019-05-12T06:53:05.446Z,3.6
2019-05-12T06:54:11.916Z,4.17
2019-05-12T06:55:04.231Z,3.97
2019-05-12T06:56:04.656Z,3.86
2019-05-12T06:57:25.051Z,3.84
2019-05-12T06:58:05.087Z,3.82
2019-05-12T06:59:11.730Z,3.54
2019-05-12T07:00:04.776Z,3.95
2019-05-12T07:01:14.871Z,3.98
2019-05-12T07:02:03.541Z,4.59
2019-05-12T07:03:04.319Z,3.45
2019-05-12T07:04:10.129Z,4.19
2019-05-12T07:05:04.595Z,4.6
2019-05-12T07:06:04.250Z,4.01
2019-05-12T07:07:03.766Z,3.69
2019-05-12T07:08:04.432Z,3.71
2019-05-12T07:09:11.982Z,3.65
2019-05-12T07:10:26.802Z,4.15
2019-05-12T07:11:06.264Z,3.98
2019-05-12T07:12:07.467Z,3.59
2019-05-12T07:13:06.092Z,3.61
2019-05-12T07:14:18.678Z,3.76
2019-05-12T07:15:04.109Z,4.03
2019-05-12T07:16:03.880Z,4.49
2019-05-12T07:17:06.356Z,4.21
2019-05-12T07:18:04.443Z,5.55
2019-05-12T07:19:17.028Z,3.86
2019-05-12T07:20:04.098Z,4.09
2019-05-12T07:21:04.211Z,4.25
2019-05-12T07:22:19.039Z,3.72
2019-05-12T07:23:04.210Z,4.15
2019-05-12T07:24:10.987Z,3.96
2019-05-12T07:25:08.117Z,3.25
2019-05-12T07:26:13.796Z,3.7
2019-05-12T07:27:09.473Z,4.41
2019-05-12T07:28:08.289Z,4.41
2019-05-12T07:29:04.583Z,3.5
2019-05-12T07:30:04.878Z,3.5
2019-05-12T07:31:04.036Z,3.58
2019-05-12T07:32:16.125Z,4.06
2019-05-12T07:33:04.802Z,4.06
2019-05-12T07:34:07.914Z,3.6
2019-05-12T07:35:04.072Z,3.6
2019-05-12T07:36:06.629Z,3.8
2019-05-12T07:37:04.516Z,3.89
2019-05-12T07:38:05.104Z,3.43
2019-05-12T07:39:05.435Z,3.12
2019-05-12T07:40:04.990Z,3.45
2019-05-12T07:41:10.587Z,3.61
2019-05-12T07:42:03.737Z,3.74
2019-05-12T07:43:04.324Z,3.51
2019-05-12T07:44:03.828Z,3.64
2019-05-12T07:45:04.194Z,3.48
2019-05-12T07:46:07.421Z,3.46
2019-05-12T07:47:03.792Z,4.19
2019-05-12T07:48:10.115Z,4.08
2019-05-12T07:49:04.141Z,3.61
2019-05-12T07:50:04.643Z,3.9
2019-05-12T07:51:04.322Z,3.65
2019-05-12T07:52:03.848Z,3.32
2019-05-12T07:53:04.631Z,3.75
2019-05-12T07:54:04.238Z,3.04
2019-05-12T07:55:04.462Z,3.31
2019-05-12T07:56:04.294Z,3.48
2019-05-12T07:57:17.103Z,3.46
2019-05-12T07:58:15.443Z,3.14
2019-05-12T07:59:04.658Z,3.99
2019-05-12T08:00:03.845Z,3.76
2019-05-12T08:01:08.063Z,3.28
2019-05-12T08:02:04.095Z,3.22
2019-05-12T08:03:18.805Z,3.26
2019-05-12T08:04:04.693Z,2.81
2019-05-12T08:05:04.054Z,3.05
2019-05-12T08:06:04.783Z,3.09
2019-05-12T08:07:04.046Z,3.28
2019-05-12T08:08:11.131Z,2.89
2019-05-12T08:09:04.255Z,2.74
2019-05-12T08:10:15.694Z,2.66
2019-05-12T08:11:04.655Z,2.91
2019-05-12T08:12:04.185Z,3.04
2019-05-12T08:13:04.804Z,3.08
2019-05-12T08:14:03.757Z,2.99
2019-05-12T08:15:09.554Z,3.02
2019-05-12T08:16:03.839Z,3.09
2019-05-12T08:17:16.135Z,2.77
2019-05-12T08:18:08.113Z,2.97
2019-05-12T08:19:04.250Z,2.89
2019-05-12T08:20:04.662Z,2.58
2019-05-12T08:21:03.930Z,2.47
2019-05-12T08:22:04.482Z,2.66
2019-05-12T08:23:10.294Z,2.66
2019-05-12T08:24:03.940Z,2.78
2019-05-12T08:25:04.397Z,2.74
2019-05-12T08:26:18.045Z,2.57
2019-05-12T08:27:06.747Z,2.99
2019-05-12T08:28:18.142Z,2.64
2019-05-12T08:29:04.539Z,2.72
2019-05-12T08:30:06.380Z,3.17
2019-05-12T08:31:03.770Z,2.96
2019-05-12T08:32:03.978Z,2.61
2019-05-12T08:33:10.178Z,2.81
2019-05-12T08:34:04.431Z,2.51
2019-05-12T08:35:05.204Z,3.02
2019-05-12T08:36:13.901Z,3.2
2019-05-12T08:37:04.516Z,2.63
2019-05-12T08:38:04.159Z,2.61
2019-05-12T08:40:07.871Z,2.95
2019-05-12T08:41:04.438Z,2.57
2019-05-12T08:42:04.235Z,3.02
2019-05-12T08:43:10.482Z,3.01
2019-05-12T08:44:04.824Z,2.98
2019-05-12T08:45:07.690Z,2.66
2019-05-12T08:46:12.050Z,2.58
2019-05-12T08:47:04.112Z,2.78
2019-05-12T08:48:04.039Z,3.48
2019-05-12T08:49:05.637Z,2.92
2019-05-12T08:50:05.032Z,3.11
2019-05-12T08:51:14.422Z,3.01
2019-05-12T08:52:04.056Z,3.17
2019-05-12T08:53:04.952Z,3.14
2019-05-12T08:54:08.450Z,2.87
2019-05-12T08:55:04.461Z,3.02
2019-05-12T08:56:14.270Z,3.03
2019-05-12T08:57:04.008Z,2.94
2019-05-12T08:58:04.009Z,2.94
2019-05-12T08:59:06.144Z,3.01
2019-05-12T09:00:08.888Z,2.81
2019-05-12T09:01:04.593Z,2.91
2019-05-12T09:02:10.599Z,2.96
2019-05-12T09:03:03.691Z,3.45
2019-05-12T09:04:12.085Z,3.17
2019-05-12T09:05:04.863Z,2.95
2019-05-12T09:06:04.192Z,2.76
2019-05-12T09:07:04.502Z,3.61
2019-05-12T09:08:03.928Z,2.54
2019-05-12T09:09:03.799Z,3.21
2019-05-12T09:10:04.333Z,3.22
2019-05-12T09:11:03.784Z,3.05
2019-05-12T09:12:03.736Z,2.89
2019-05-12T09:13:04.376Z,2.88
2019-05-12T09:14:06.047Z,2.88
2019-05-12T09:15:07.863Z,3.19
2019-05-12T09:16:04.445Z,2.75
2019-05-12T09:17:07.522Z,2.75
2019-05-12T09:18:05.137Z,2.89
2019-05-12T09:19:05.106Z,2.77
2019-05-12T09:20:08.690Z,2.77
2019-05-12T09:21:03.936Z,2.49
2019-05-12T09:22:16.643Z,3.33
2019-05-12T09:23:05.153Z,3.08
2019-05-12T09:24:04.463Z,2.85
2019-05-12T09:25:08.553Z,3.03
2019-05-12T09:26:04.251Z,2.74
2019-05-12T09:27:08.787Z,3.09
2019-05-12T09:28:04.036Z,3.14
2019-05-12T09:29:03.849Z,3.52
2019-05-12T09:30:09.587Z,3.22
2019-05-12T09:31:03.815Z,2.92
2019-05-12T09:32:09.411Z,2.59
2019-05-12T09:33:04.416Z,2.84
2019-05-12T09:34:14.055Z,2.85
2019-05-12T09:35:04.219Z,2.87
2019-05-12T09:36:04.474Z,2.92
2019-05-12T09:37:04.261Z,3.36
2019-05-12T09:38:06.387Z,3.14
2019-05-12T09:39:05.996Z,2.85
2019-05-12T09:40:04.756Z,2.76
2019-05-12T09:41:05.568Z,3.43
2019-05-12T09:42:04.008Z,2.74
2019-05-12T09:43:10.583Z,3.19
2019-05-12T09:44:04.707Z,3.14
2019-05-12T09:45:10.235Z,3.16
2019-05-12T09:46:04.373Z,3.16
2019-05-12T09:47:07.373Z,3.15
2019-05-12T09:48:09.038Z,3.46
2019-05-12T09:49:04.290Z,3.16
2019-05-12T09:50:04.479Z,3.14
2019-05-12T09:51:07.974Z,2.67
2019-05-12T09:52:03.809Z,2.68
2019-05-12T09:53:11.381Z,3.16
2019-05-12T09:54:05.411Z,2.72
2019-05-12T09:55:04.405Z,2.9
2019-05-12T09:56:04.668Z,3.21
2019-05-12T09:57:04.503Z,2.62
2019-05-12T09:58:04.262Z,2.71
2019-05-12T09:59:22.402Z,3.31
2019-05-12T10:00:04.640Z,2.61
2019-05-12T10:01:03.965Z,2.67
2019-05-12T10:02:03.855Z,2.67
2019-05-12T10:03:08.080Z,2.47
2019-05-12T10:04:03.921Z,2.49
2019-05-12T10:05:04.116Z,2.49
2019-05-12T10:06:03.977Z,2.78
2019-05-12T10:07:04.000Z,2.65
2019-05-12T10:08:04.919Z,2.65
2019-05-12T10:09:03.692Z,2.84
2019-05-12T10:10:03.931Z,2.53
2019-05-12T10:11:03.992Z,2.86
2019-05-12T10:12:05.770Z,2.85
2019-05-12T10:13:05.042Z,3.14
2019-05-12T10:14:10.707Z,2.92
2019-05-12T10:15:04.476Z,2.92
2019-05-12T10:16:08.878Z,2.48
2019-05-12T10:17:03.809Z,2.74
2019-05-12T10:18:11.492Z,2.48
2019-05-12T10:19:04.178Z,2.41
2019-05-12T10:20:03.544Z,2.89
2019-05-12T10:21:03.180Z,2.59
2019-05-12T10:22:02.979Z,2.71
2019-05-12T10:23:04.695Z,2.61
2019-05-12T10:24:05.251Z,2.87
2019-05-12T10:25:04.191Z,2.87
2019-05-12T10:26:11.644Z,2.86
2019-05-12T10:27:04.048Z,3.15
2019-05-12T10:28:13.822Z,2.84
2019-05-12T10:29:20.269Z,2.9
2019-05-12T10:30:16.378Z,2.81
2019-05-12T10:31:04.333Z,2.66
2019-05-12T10:32:04.206Z,2.65
2019-05-12T10:33:04.151Z,3.62
2019-05-12T10:34:03.909Z,2.55
2019-05-12T10:35:03.951Z,2.32
2019-05-12T10:36:08.467Z,2.56
2019-05-12T10:37:04.280Z,2.5
2019-05-12T10:38:10.586Z,2.84
2019-05-12T10:39:04.485Z,3.08
2019-05-12T10:40:04.005Z,3.08
2019-05-12T10:41:04.489Z,2.71
2019-05-12T10:42:03.462Z,3.02
2019-05-12T10:43:04.956Z,3.02
2019-05-12T10:44:04.188Z,2.76
2019-05-12T10:45:04.418Z,2.96
2019-05-12T10:46:04.367Z,2.82
2019-05-12T10:47:04.665Z,2.59
2019-05-12T10:48:03.879Z,2.72
2019-05-12T10:49:04.055Z,2.88
2019-05-12T10:50:04.347Z,2.99
2019-05-12T10:51:03.534Z,2.76
2019-05-12T10:52:04.128Z,3.05
2019-05-12T10:53:04.916Z,3.09
2019-05-12T10:54:14.932Z,2.68
2019-05-12T10:55:04.590Z,3.08
2019-05-12T10:56:04.052Z,3.02
2019-05-12T10:57:05.207Z,3.08
2019-05-12T10:58:07.418Z,3.27
2019-05-12T10:59:04.421Z,3.09
2019-05-12T11:00:04.502Z,2.95
2019-05-12T11:01:08.497Z,2.78
2019-05-12T11:02:03.717Z,3.05
2019-05-12T11:03:12.310Z,3.04
2019-05-12T11:04:04.079Z,2.68
2019-05-12T11:05:03.901Z,3.14
2019-05-12T11:06:07.957Z,2.92
2019-05-12T11:07:04.813Z,3.16
2019-05-12T11:08:11.469Z,3.02
2019-05-12T11:09:03.879Z,2.9
2019-05-12T11:10:19.812Z,3.46
2019-05-12T11:11:04.358Z,3.36
2019-05-12T11:12:03.617Z,3.54
2019-05-12T11:13:09.936Z,3.59
2019-05-12T11:14:04.056Z,3.58
2019-05-12T11:15:08.430Z,3.49
2019-05-12T11:16:03.965Z,3.54
2019-05-12T11:17:09.417Z,3.7
2019-05-12T11:18:03.191Z,4.01
2019-05-12T11:19:10.460Z,4.22
2019-05-12T11:20:04.281Z,4.24
2019-05-12T11:21:03.787Z,4.26
2019-05-12T11:22:03.846Z,4.42
2019-05-12T11:23:04.181Z,4.49
2019-05-12T11:24:03.977Z,4.72
2019-05-12T11:25:04.486Z,4.45
2019-05-12T11:26:04.136Z,4.79
2019-05-12T11:27:04.259Z,4.65
2019-05-12T11:28:04.062Z,4.65
2019-05-12T11:29:03.920Z,4.63
2019-05-12T11:30:04.470Z,4.66
2019-05-12T11:31:03.788Z,4.66
2019-05-12T11:32:03.869Z,5.21
2019-05-12T11:33:04.755Z,5.44
2019-05-12T11:34:05.086Z,5.44
2019-05-12T11:35:04.268Z,5.63
2019-05-12T11:36:04.523Z,5.48
2019-05-12T11:37:03.672Z,5.54
2019-05-12T11:38:04.852Z,5.58
2019-05-12T11:39:03.765Z,5.88
2019-05-12T11:40:04.471Z,6.08
2019-05-12T11:41:04.389Z,6.5
2019-05-12T11:42:04.428Z,5.62
2019-05-12T11:43:04.654Z,5.9
2019-05-12T11:44:04.095Z,5.82
2019-05-12T11:45:03.307Z,5.97
2019-05-12T11:46:03.202Z,5.25
2019-05-12T11:47:03.885Z,5.57
2019-05-12T11:48:10.523Z,5.84
2019-05-12T11:49:04.527Z,5.76
2019-05-12T11:50:09.973Z,6.09
2019-05-12T11:51:04.171Z,5.89
2019-05-12T11:52:13.351Z,5.92
2019-05-12T11:53:04.503Z,6.45
2019-05-12T11:54:10.787Z,6.29
2019-05-12T11:55:04.031Z,6.44
2019-05-12T11:56:09.225Z,6.32
2019-05-12T11:57:03.752Z,6.25
2019-05-12T11:58:11.351Z,6.76
2019-05-12T11:59:03.727Z,5.86
2019-05-12T12:00:05.575Z,6.76
2019-05-12T12:01:08.330Z,6.1
2019-05-12T12:02:03.453Z,6.41
2019-05-12T12:03:15.181Z,5.71
2019-05-12T12:04:03.846Z,6.34
2019-05-12T12:05:03.711Z,6.47
2019-05-12T12:06:03.220Z,7.04
2019-05-12T12:07:03.700Z,6.44
2019-05-12T12:08:04.207Z,6.44
2019-05-12T12:09:04.045Z,6.27
2019-05-12T12:10:03.838Z,6.89
2019-05-12T12:11:04.074Z,6.74
2019-05-12T12:13:04.293Z,7.05
2019-05-12T12:14:10.432Z,6.72
2019-05-12T12:15:04.813Z,6.53
2019-05-12T12:16:11.084Z,6.64
2019-05-12T12:17:04.121Z,7.01
2019-05-12T12:18:15.171Z,7.27
2019-05-12T12:19:06.130Z,6.44
2019-05-12T12:20:03.934Z,7.12
2019-05-12T12:21:07.919Z,7.26
2019-05-12T12:22:04.529Z,6.88
2019-05-12T12:23:11.195Z,7.44
2019-05-12T12:24:04.067Z,7.09
2019-05-12T12:25:13.007Z,6.53
2019-05-12T12:26:04.130Z,6.4
2019-05-12T12:27:04.049Z,6.45
2019-05-12T12:28:04.675Z,6.64
2019-05-12T12:29:03.666Z,6.09
2019-05-12T12:30:19.617Z,6.86
2019-05-12T12:31:07.878Z,7.04
2019-05-12T12:32:03.395Z,6.5
2019-05-12T12:33:04.496Z,6.31
2019-05-12T12:34:03.579Z,7.04
2019-05-12T12:35:11.036Z,8.03
2019-05-12T12:36:04.303Z,6.24
2019-05-12T12:37:03.996Z,6.75
2019-05-12T12:38:04.013Z,7.18
2019-05-12T12:39:04.277Z,7.32
2019-05-12T12:40:04.518Z,7.56
2019-05-12T12:41:04.333Z,6.45
2019-05-12T12:42:04.592Z,7.89
2019-05-12T12:43:04.199Z,7.02
2019-05-12T12:44:04.697Z,7.8
2019-05-12T12:45:04.470Z,6.81
2019-05-12T12:46:03.708Z,7.91
2019-05-12T12:47:04.139Z,7.51
2019-05-12T12:48:03.943Z,6.92
2019-05-12T12:49:10.320Z,6.39
2019-05-12T12:50:04.173Z,7.51
2019-05-12T12:51:04.199Z,6.53
2019-05-12T12:52:03.682Z,7.11
2019-05-12T12:53:03.821Z,7.53
2019-05-12T12:54:03.783Z,7.18
2019-05-12T12:55:08.401Z,7.18
2019-05-12T12:56:04.550Z,6.69
2019-05-12T12:57:09.857Z,6.91
2019-05-12T12:58:03.696Z,7.46
2019-05-12T12:59:11.777Z,6.79
2019-05-12T13:00:03.990Z,7.46
2019-05-12T13:01:03.898Z,8.08
2019-05-12T13:02:09.103Z,7.71
2019-05-12T13:03:03.883Z,7.2
2019-05-12T13:04:06.643Z,7.22
2019-05-12T13:05:03.637Z,8.01
2019-05-12T13:06:04.947Z,7.27
2019-05-12T13:07:04.834Z,6.97
2019-05-12T13:08:04.461Z,6.78
2019-05-12T13:09:22.350Z,6.75
2019-05-12T13:10:09.814Z,7.01
2019-05-12T13:11:04.573Z,7.02
2019-05-12T13:12:15.277Z,7.31
2019-05-12T13:13:04.578Z,7.52
2019-05-12T13:14:04.213Z,7.58
2019-05-12T13:15:03.989Z,7.22
2019-05-12T13:16:04.322Z,7.85
2019-05-12T13:17:04.323Z,7.39
2019-05-12T13:18:03.237Z,6.88
2019-05-12T13:19:16.833Z,7.71
2019-05-12T13:20:03.121Z,7.13
2019-05-12T13:21:03.911Z,7.25
2019-05-12T13:22:03.877Z,6.8
2019-05-12T13:23:04.309Z,7.62
2019-05-12T13:24:03.753Z,6.91
2019-05-12T13:25:08.854Z,7.01
2019-05-12T13:26:04.528Z,6.99